createdAt,value
2022-12-18T13:16:08.866Z,53.54
2022-12-18T13:18:37.497Z,53.63
2022-12-18T13:21:19.187Z,53.56
2022-12-18T13:23:47.574Z,53.77
2022-12-18T13:26:23.260Z,54.21
2022-12-18T13:28:57.888Z,54.77
2022-12-18T13:31:41.863Z,55.18
2022-12-18T13:34:28.002Z,54.84
2022-12-18T13:37:32.648Z,54.91
2022-12-18T13:40:01.143Z,55.37
2022-12-18T13:42:40.086Z,55.63
2022-12-18T13:45:39.855Z,56.06
2022-12-18T13:48:22.060Z,56.46
2022-12-18T13:51:00.534Z,56.39
2022-12-18T13:53:34.004Z,56.22
2022-12-18T13:56:04.511Z,56.50
2022-12-18T13:58:33.224Z,56.49
2022-12-18T14:01:01.606Z,57.03
2022-12-18T14:03:30.956Z,56.99
2022-12-18T14:06:09.662Z,56.82
2022-12-18T14:08:43.060Z,56.97
2022-12-18T14:11:22.849Z,57.05
2022-12-18T14:13:52.120Z,57.47
2022-12-18T14:16:20.875Z,57.96
2022-12-18T14:19:04.477Z,58.22
2022-12-18T14:21:35.264Z,57.81
2022-12-18T14:24:08.070Z,58.29
2022-12-18T14:26:36.479Z,58.48
2022-12-18T14:29:24.093Z,59.00
2022-12-18T14:32:18.150Z,59.25
2022-12-18T14:34:53.898Z,59.67
2022-12-18T14:37:27.655Z,59.98
2022-12-18T14:40:08.971Z,60.20
2022-12-18T14:42:39.033Z,60.23
2022-12-18T14:45:41.516Z,60.51
2022-12-18T14:48:23.643Z,60.39
2022-12-18T14:50:59.777Z,59.60
2022-12-18T14:53:58.747Z,60.35
2022-12-18T14:56:32.959Z,61.16
2022-12-18T14:59:04.286Z,61.29
2022-12-18T15:01:36.282Z,59.65
2022-12-18T15:04:07.018Z,59.82
2022-12-18T15:06:39.233Z,58.82
2022-12-18T15:09:23.765Z,58.92
2022-12-18T15:11:58.049Z,58.45
2022-12-18T15:14:35.767Z,58.55
2022-12-18T15:17:22.471Z,58.60
2022-12-18T15:19:59.856Z,58.54
2022-12-18T15:22:35.804Z,58.42
2022-12-18T15:25:23.022Z,57.99
2022-12-18T15:27:51.259Z,58.45
2022-12-18T15:30:21.882Z,58.42
2022-12-18T15:32:52.288Z,58.99
2022-12-18T15:35:23.725Z,60.68
2022-12-18T15:37:53.227Z,61.99
2022-12-18T15:40:25.138Z,60.27
2022-12-18T15:42:56.368Z,60.56
2022-12-18T15:45:24.528Z,60.32
2022-12-18T15:47:53.683Z,59.74
2022-12-18T15:50:24.014Z,59.35
2022-12-18T15:52:54.904Z,59.47
2022-12-18T15:55:25.358Z,59.64
2022-12-18T15:57:53.403Z,59.87
2022-12-18T16:00:21.492Z,60.30
2022-12-18T16:02:49.618Z,60.49
2022-12-18T16:05:20.837Z,61.23
2022-12-18T16:07:49.271Z,60.94
2022-12-18T16:10:17.454Z,61.33
2022-12-18T16:12:45.772Z,61.30
2022-12-18T16:15:18.521Z,61.79
2022-12-18T16:17:50.731Z,62.12
2022-12-18T16:20:23.331Z,62.29
2022-12-18T16:22:52.445Z,63.01
2022-12-18T16:25:23.001Z,63.35
2022-12-18T16:27:52.413Z,63.65
2022-12-18T16:30:24.021Z,63.82
2022-12-18T16:32:52.399Z,64.26
2022-12-18T16:35:20.631Z,64.97
2022-12-18T16:37:48.717Z,65.51
2022-12-18T16:40:18.704Z,66.30
2022-12-18T16:42:47.460Z,66.67
2022-12-18T16:45:18.355Z,67.16
2022-12-18T16:47:46.923Z,70.09
2022-12-18T16:50:15.225Z,68.71
2022-12-18T16:52:43.426Z,69.79
2022-12-18T16:55:13.699Z,69.93
2022-12-18T16:57:41.813Z,71.09
2022-12-18T17:00:10.979Z,70.21
2022-12-18T17:02:39.540Z,70.31
2022-12-18T17:05:08.226Z,70.62
2022-12-18T17:07:36.714Z,71.16
2022-12-18T17:10:05.258Z,71.82
2022-12-18T17:12:33.480Z,71.73
2022-12-18T17:15:01.911Z,72.23
2022-12-18T17:17:30.180Z,72.38
2022-12-18T17:19:58.429Z,72.30
2022-12-18T17:22:26.815Z,72.87
2022-12-18T17:24:55.043Z,73.16
2022-12-18T17:27:23.215Z,73.38
2022-12-18T17:29:51.379Z,73.78
2022-12-18T17:32:19.644Z,73.98
2022-12-18T17:34:48.121Z,74.19
2022-12-18T17:37:16.423Z,74.22
2022-12-18T17:39:44.522Z,74.24
2022-12-18T17:42:15.672Z,74.47
2022-12-18T17:44:45.350Z,74.56
2022-12-18T17:47:14.070Z,74.93
2022-12-18T17:49:42.303Z,75.07
2022-12-18T17:52:11.213Z,75.48
2022-12-18T17:54:39.478Z,75.79
2022-12-18T17:57:07.853Z,75.72
2022-12-18T17:59:36.203Z,75.71
2022-12-18T18:02:04.495Z,75.87
2022-12-18T18:04:33.113Z,76.06
2022-12-18T18:07:01.479Z,76.43
2022-12-18T18:09:29.654Z,76.78
2022-12-18T18:11:57.786Z,77.28
2022-12-18T18:14:25.971Z,76.93
2022-12-18T18:16:55.142Z,77.57
2022-12-18T18:19:25.774Z,77.82
2022-12-18T18:21:54.656Z,77.96
2022-12-18T18:24:24.098Z,77.69
2022-12-18T18:26:52.278Z,77.58
2022-12-18T18:29:23.522Z,78.01
2022-12-18T18:31:51.953Z,78.54
2022-12-18T18:34:29.630Z,78.71
2022-12-18T18:36:58.125Z,78.49
2022-12-18T18:39:27.006Z,79.00
2022-12-18T18:41:55.238Z,79.12
2022-12-18T18:44:26.010Z,79.17
2022-12-18T18:46:56.854Z,79.22
2022-12-18T18:49:27.726Z,79.14
2022-12-18T18:51:57.909Z,79.42
2022-12-18T18:54:26.429Z,79.35
2022-12-18T18:59:42.875Z,79.58
2022-12-18T19:02:16.350Z,79.29
2022-12-18T19:04:45.979Z,78.49
2022-12-18T19:07:23.884Z,79.58
2022-12-18T19:10:04.016Z,79.56
2022-12-18T19:12:34.736Z,79.40
2022-12-18T19:15:06.071Z,79.77
2022-12-18T19:17:34.372Z,79.34
2022-12-18T19:20:05.121Z,80.04
2022-12-18T19:22:33.356Z,79.75
2022-12-18T19:25:01.654Z,80.07
2022-12-18T19:27:29.793Z,80.34
2022-12-18T19:29:58.319Z,80.13
2022-12-18T19:32:26.422Z,80.68
2022-12-18T19:34:54.554Z,80.24
2022-12-18T19:37:22.831Z,79.92
2022-12-18T19:39:51.164Z,79.21
2022-12-18T19:42:25.509Z,79.59
2022-12-18T19:44:56.517Z,79.59
2022-12-18T19:47:25.004Z,80.23
2022-12-18T19:49:53.382Z,79.74
2022-12-18T19:52:21.906Z,80.08
2022-12-18T19:54:49.990Z,79.86
2022-12-18T19:57:18.460Z,79.77
2022-12-18T19:59:46.633Z,79.95
2022-12-18T20:02:16.811Z,79.23
2022-12-18T20:04:45.090Z,79.53
2022-12-18T20:07:13.480Z,78.99
2022-12-18T20:09:41.821Z,78.57
2022-12-18T20:12:10.447Z,78.57
2022-12-18T20:14:38.616Z,79.26
2022-12-18T20:17:06.744Z,79.11
2022-12-18T20:19:35.373Z,78.82
2022-12-18T20:22:04.003Z,79.16
2022-12-18T20:24:32.355Z,78.41
2022-12-18T20:27:00.699Z,78.97
2022-12-18T20:29:29.468Z,79.13
2022-12-18T20:31:57.578Z,79.12
2022-12-18T20:34:26.024Z,79.31
2022-12-18T20:36:54.232Z,79.01
2022-12-18T20:39:22.869Z,79.04
2022-12-18T20:41:51.928Z,78.58
2022-12-18T20:44:22.740Z,78.30
2022-12-18T20:46:55.075Z,78.48
2022-12-18T20:49:25.060Z,78.95
2022-12-18T20:51:54.877Z,78.34
2022-12-18T20:54:25.534Z,78.59
2022-12-18T20:56:53.996Z,79.12
2022-12-18T20:59:22.199Z,78.67
2022-12-18T21:01:50.950Z,78.87
2022-12-18T21:04:19.352Z,78.99
2022-12-18T21:06:54.144Z,78.96
2022-12-18T21:09:38.320Z,78.27
2022-12-18T21:12:14.086Z,78.85
2022-12-18T21:14:43.010Z,78.87
2022-12-18T21:17:12.011Z,78.76
2022-12-18T21:19:40.392Z,78.61
2022-12-18T21:22:10.383Z,77.81
2022-12-18T21:24:38.777Z,77.52
2022-12-18T21:27:07.085Z,78.20
2022-12-18T21:29:35.761Z,77.62
2022-12-18T21:32:04.996Z,78.20
2022-12-18T21:34:33.369Z,78.14
2022-12-18T21:37:04.873Z,78.83
2022-12-18T21:39:33.517Z,78.23
2022-12-18T21:42:01.714Z,79.04
2022-12-18T21:44:30.663Z,78.62
2022-12-18T22:13:59.315Z,78.94
2022-12-18T22:16:28.312Z,79.40
2022-12-18T22:18:56.507Z,78.61
2022-12-18T22:21:33.665Z,78.50
2022-12-18T22:24:04.384Z,77.84
2022-12-18T22:26:39.822Z,77.41
2022-12-18T22:29:14.513Z,78.56
2022-12-18T22:31:43.380Z,78.50
2022-12-18T22:34:12.166Z,78.10
2022-12-18T22:36:46.356Z,78.33
2022-12-18T22:39:16.194Z,78.36
2022-12-18T22:41:45.061Z,78.39
2022-12-18T22:44:13.862Z,78.79
2022-12-18T22:47:05.766Z,78.73
2022-12-18T22:49:35.893Z,78.46
2022-12-18T22:52:06.459Z,77.49
2022-12-18T22:54:34.547Z,78.08
2022-12-18T22:57:02.660Z,77.80
2022-12-18T22:59:31.614Z,78.43
2022-12-18T23:01:59.872Z,78.43
2022-12-18T23:04:28.471Z,77.98
2022-12-18T23:07:06.111Z,77.99
2022-12-18T23:09:34.820Z,78.20
2022-12-18T23:12:03.933Z,78.58
2022-12-18T23:14:32.006Z,78.62
2022-12-18T23:17:00.394Z,79.05
2022-12-18T23:19:28.680Z,79.83
2022-12-18T23:21:59.060Z,79.53
2022-12-18T23:24:27.687Z,78.48
2022-12-18T23:26:58.977Z,78.88
2022-12-18T23:29:27.211Z,79.11
2022-12-18T23:31:55.542Z,78.67
2022-12-18T23:34:23.797Z,79.41
2022-12-18T23:36:56.015Z,80.40
2022-12-18T23:39:29.800Z,80.08
2022-12-18T23:41:59.086Z,80.54
2022-12-18T23:44:28.105Z,80.08
2022-12-18T23:46:56.344Z,79.19
2022-12-18T23:49:24.588Z,78.69
2022-12-18T23:51:54.708Z,78.06
2022-12-18T23:54:32.945Z,77.97
2022-12-18T23:57:02.153Z,79.04
2022-12-18T23:59:30.262Z,79.14
